Carlisle, Louisiana
Current Conditions -  °F | °C
As of 9:55 AM on Sunday 21 Dec 2014 (Local Time) from KNBG Reporting Station
Overcast Overcast  
Wind Chill: 55°   Ceiling: 800
Heat Index: 55°   Visibility: 10mi
Dew Point: 50°   Wind: 3mph
Humidity: 83%   Direction: 80°E
Pressure: 30.11"   Gusts: NA
Location:  29.68°N, 89.95°W
Report Text: KNBG 211555Z 08003KT 10SM OVC008 13/10 A3011 RMK AO2 SLP196 T01280100 $
Loading
Personal Weather Stations






























Interactive Weather Map New forecast layout! Learn more

10-Day Weather Forecast

Advertisements
Track Severe Weather on mobile